Latest Coastal Weather Observations for Burnie Port

IDT60701

Issued at 4:22 pm EST Thursday 1 June 2017 (issued every 10 minutes, with the page automatically refreshed every 10 minutes)

About coastal observations | Map of coastal stations | Coastal observations for TAS | Marine services | Other Formats
Station Details ID: 091344 Name: BURNIE NTC AWS Lat: -41.05 Lon: 145.91 Height: 0.0 m
Data from the previous 72 hours. | See also: Recent months for locations in Tasmania
Date/Time
EST
Temp
°C
Wind Pressure Rain since
9am
mm
Weather Cloud Vis
km
Sea
Height
m
Swell
Dir  Spd
kts
Gust
kts
hPa Trend Height
m
Period
s
Dir
01/04:00pm 12.3 WNW 6 9 1032.6 - - - - - - - - -
01/03:30pm 12.8 W 6 11 1032.5 - - - - - - - - -
01/03:00pm 13.0 WSW 7 15 1032.4 - - - - - - - - -
01/02:30pm 13.3 WSW 6 13 1032.3 - - - - - - - - -
01/02:00pm 13.2 SW 6 10 1032.4 - - - - - - - - -
01/01:30pm 12.5 NW 5 7 1032.6 - - - - - - - - -
01/01:00pm 12.3 WNW 6 8 1032.9 - - - - - - - - -
01/12:30pm 12.2 WNW 5 9 1033.2 - - - - - - - - -
01/12:00pm 12.0 NW 7 9 1033.4 - - - - - - - - -
01/11:30am 11.9 NW 8 11 1033.6 - - - - - - - - -
01/11:00am 12.1 WNW 5 8 1034.0 - - - - - - - - -
01/10:30am 11.8 NW 6 8 1034.0 - - - - - - - - -
01/10:00am 11.6 WNW 7 10 1033.8 - - - - - - - - -
01/09:30am 11.1 NW 8 10 1033.6 - - - - - - - - -
01/09:00am 10.6 WNW 7 10 1033.6 - - - - - - - - -
01/08:30am 10.1 WNW 7 10 1033.6 - - - - - - - - -
01/08:00am 9.7 NW 8 10 1033.4 - - - - - - - - -
01/07:30am 10.0 NW 6 8 1033.4 - - - - - - - - -
01/07:00am 9.9 W 6 7 1033.3 - - - - - - - - -
01/06:30am 9.7 WNW 5 8 1032.9 - - - - - - - - -
01/06:00am 9.3 WNW 5 8 1032.8 - - - - - - - - -
01/05:30am 9.2 WNW 5 7 1032.7 - - - - - - - - -
01/05:00am 8.9 WNW 5 8 1032.7 - - - - - - - - -
01/04:30am 8.9 W 3 6 1032.4 - - - - - - - - -
01/04:00am 9.3 WNW 4 6 1032.3 - - - - - - - - -
01/03:30am 8.9 WNW 4 6 1032.3 - - - - - - - - -
01/03:00am 9.3 WNW 6 9 1032.4 - - - - - - - - -
01/02:30am 9.3 WNW 5 8 1032.6 - - - - - - - - -
01/02:00am 8.8 WNW 6 9 1032.5 - - - - - - - - -
01/01:30am 8.9 WNW 6 11 1032.5 - - - - - - - - -
01/01:00am 8.7 WNW 6 9 1032.3 - - - - - - - - -
01/12:30am 8.5 W 6 9 1032.2 - - - - - - - - -
01/12:00am 8.8 WNW 5 8 1032.5 - - - - - - - - -
 
Date/Time
EST
Temp
°C
Wind Pressure Rain since
9am
mm
Weather Cloud Vis
km
Sea
Height
m
Swell
Dir  Spd
kts
Gust
kts
hPa Trend Height
m
Period
s
Dir
31/11:30pm 8.8 W 5 8 1032.6 - - - - - - - - -
31/11:00pm 8.8 WSW 2 5 1032.5 - - - - - - - - -
31/10:30pm 8.9 WNW 6 9 1032.6 - - - - - - - - -
31/10:00pm 9.4 WNW 5 9 1033.0 - - - - - - - - -
31/09:30pm 9.2 W 4 6 1032.9 - - - - - - - - -
31/09:00pm 9.3 WNW 4 6 1032.9 - - - - - - - - -
31/08:30pm 9.4 WNW 4 8 1032.6 - - - - - - - - -
31/08:00pm 9.5 W 5 7 1032.6 - - - - - - - - -
31/07:30pm 10.1 W 6 9 1032.4 - - - - - - - - -
31/07:00pm 10.3 W 7 10 1032.1 - - - - - - - - -
31/06:30pm 10.2 WNW 6 8 1031.8 - - - - - - - - -
31/06:00pm 10.8 W 5 8 1031.4 - - - - - - - - -
31/05:30pm 11.1 WSW 4 7 1031.3 - - - - - - - - -
31/05:00pm 11.4 W 3 6 1030.8 - - - - - - - - -
31/04:30pm 11.6 WSW 5 9 1030.4 - - - - - - - - -
31/04:00pm 12.0 WSW 6 11 1030.2 - - - - - - - - -
31/03:30pm 12.1 WSW 6 11 1030.0 - - - - - - - - -
31/03:00pm 11.8 WSW 8 15 1029.6 - - - - - - - - -
31/02:30pm 11.9 WSW 7 12 1029.5 - - - - - - - - -
31/02:00pm 11.8 SSW 11 15 1029.4 - - - - - - - - -
31/01:30pm 11.8 SW 11 17 1029.6 - - - - - - - - -
31/01:00pm 12.1 SSW 14 19 1029.7 - - - - - - - - -
31/12:57pm 12.0 SSW 15 23 1029.7 - - - - - - - - -
31/12:30pm 12.2 SW 6 12 1029.8 - - - - - - - - -
31/12:00pm 11.5 SW 9 13 1029.8 - - - - - - - - -
31/11:30am 10.3 NNW 7 10 1030.1 - - - - - - - - -
31/11:00am 9.3 NNW 9 11 1030.6 - - - - - - - - -
31/10:30am 8.7 NW 8 11 1030.7 - - - - - - - - -
31/10:00am 8.5 WNW 6 9 1030.8 - - - - - - - - -
31/09:30am 7.8 W 8 11 1030.6 - - - - - - - - -
31/09:00am 7.2 W 9 11 1030.4 - - - - - - - - -
31/08:30am 6.9 W 8 12 1030.1 - - - - - - - - -
31/08:00am 6.8 W 6 10 1029.7 - - - - - - - - -
31/07:30am 6.3 WSW 6 9 1029.5 - - - - - - - - -
31/07:00am 6.2 WSW 6 11 1029.0 - - - - - - - - -
31/06:30am 6.2 WSW 6 10 1028.7 - - - - - - - - -
31/06:00am 6.3 WSW 4 7 1028.5 - - - - - - - - -
31/05:30am 6.4 W 6 8 1028.3 - - - - - - - - -
31/05:00am 6.1 W 6 9 1028.0 - - - - - - - - -
31/04:30am 5.7 W 6 10 1027.7 - - - - - - - - -
31/04:00am 5.8 W 7 10 1027.5 - - - - - - - - -
31/03:30am 5.6 WSW 2 5 1027.3 - - - - - - - - -
31/03:00am 5.8 W 2 4 1027.4 - - - - - - - - -
31/02:30am 5.9 SW 4 5 1027.3 - - - - - - - - -
31/02:00am 6.7 SW 6 11 1027.0 - - - - - - - - -
31/01:30am 7.0 WSW 8 12 1026.9 - - - - - - - - -
31/01:00am 7.1 SW 13 19 1026.6 - - - - - - - - -
31/12:30am 7.4 SW 14 19 1026.2 - - - - - - - - -
31/12:00am 7.4 SW 14 21 1026.2 - - - - - - - - -
 
Date/Time
EST
Temp
°C
Wind Pressure Rain since
9am
mm
Weather Cloud Vis
km
Sea
Height
m
Swell
Dir  Spd
kts
Gust
kts
hPa Trend Height
m
Period
s
Dir
30/11:30pm 7.2 SSW 7 13 1026.0 - - - - - - - - -
30/11:00pm 7.0 W 2 4 1025.7 - - - - - - - - -
30/10:30pm 6.1 W 1 2 1025.7 - - - - - - - - -
30/10:00pm 6.8 W 3 5 1025.6 - - - - - - - - -
30/09:30pm 6.7 W 4 6 1025.4 - - - - - - - - -
30/09:00pm 7.0 W 3 5 1025.0 - - - - - - - - -
30/08:30pm 6.9 NW 2 3 1024.6 - - - - - - - - -
30/08:00pm 7.0 ESE 1 4 1024.3 - - - - - - - - -
30/07:30pm 7.0 SW 4 7 1023.9 - - - - - - - - -
30/07:00pm 7.4 SW 9 15 1023.2 - - - - - - - - -
30/06:30pm 7.7 SW 10 16 1022.6 - - - - - - - - -
30/06:00pm 8.2 SW 10 17 1022.2 - - - - - - - - -
30/05:30pm 8.2 WSW 6 12 1021.9 - - - - - - - - -
30/05:00pm 8.9 SW 7 12 1021.2 - - - - - - - - -
30/04:30pm 9.5 SW 8 13 1020.7 - - - - - - - - -
30/04:00pm 9.7 SSW 15 24 1020.3 - - - - - - - - -
30/03:30pm 10.8 WSW 7 14 1019.6 - - - - - - - - -
30/03:00pm 11.1 SW 9 16 1019.0 - - - - - - - - -
30/02:30pm 11.0 SW 12 18 1018.4 - - - - - - - - -
30/02:00pm 10.4 SW 9 18 1018.3 - - - - - - - - -
30/01:30pm 10.1 WSW 7 11 1017.9 - - - - - - - - -
30/01:00pm 10.0 WSW 7 17 1017.3 - - - - - - - - -
30/12:30pm 10.1 WSW 7 18 1016.7 - - - - - - - - -
30/12:00pm 10.2 SW 13 22 1016.3 - - - - - - - - -
30/11:30am 10.4 SW 12 21 1016.4 - - - - - - - - -
30/11:00am 10.3 SW 13 25 1016.4 - - - - - - - - -
30/10:30am 10.4 SW 13 21 1015.8 - - - - - - - - -
30/10:00am 10.2 WSW 11 21 1015.3 - - - - - - - - -
30/09:30am 10.2 WSW 8 20 1014.5 - - - - - - - - -
30/09:00am 9.4 WSW 7 13 1014.0 - - - - - - - - -
30/08:30am 9.5 W 4 9 1013.4 - - - - - - - - -
30/08:00am 9.6 WSW 5 10 1012.7 - - - - - - - - -
30/07:30am 9.5 W 7 13 1012.3 - - - - - - - - -
30/07:00am 9.5 WNW 9 13 1011.7 - - - - - - - - -
30/06:30am 9.8 W 9 13 1010.6 - - - - - - - - -
30/06:00am 10.4 W 7 13 1010.0 - - - - - - - - -
30/05:30am 10.9 WSW 10 20 1009.8 - - - - - - - - -
30/05:00am 11.3 WSW 15 25 1009.2 - - - - - - - - -
30/04:30am 12.0 WSW 15 26 1008.6 - - - - - - - - -
30/04:07am 12.3 NW 23 33 1008.6 - - - - - - - - -
30/04:00am 13.4 NW 26 33 1008.5 - - - - - - - - -
30/03:30am 13.9 NW 22 32 1008.8 - - - - - - - - -
30/03:23am 14.1 NW 17 29 1009.1 - - - - - - - - -
30/03:00am 12.9 NW 20 29 1009.6 - - - - - - - - -
30/02:56am 13.4 WNW 14 26 1009.6 - - - - - - - - -
30/02:30am 12.7 W 9 16 1010.1 - - - - - - - - -

Other Formats:

Comma delimited format used in spreadsheet applications
http://www.bom.gov.au/fwo/IDT60701/IDT60701.95963.axf

JavaScript Object Notation format (JSON) in row-major order
http://www.bom.gov.au/fwo/IDT60701/IDT60701.95963.json